sensor_id;sensor_type;location;lat;lon;timestamp;temperature;humidity
58102;HTU21D;52034;51.926;6.320;2024-02-23T00:01:01;5.80;85.00
58102;HTU21D;52034;51.926;6.320;2024-02-23T00:02:03;5.84;84.05
58102;HTU21D;52034;51.926;6.320;2024-02-23T00:03:05;5.84;85.31
58102;HTU21D;52034;51.926;6.320;2024-02-23T00:04:07;5.76;85.64
58102;HTU21D;52034;51.926;6.320;2024-02-23T00:05:09;5.72;84.74
58102;HTU21D;52034;51.926;6.320;2024-02-23T00:06:11;5.77;85.45
58102;HTU21D;52034;51.926;6.320;2024-02-23T00:07:13;5.77;85.01
58102;HTU21D;52034;51.926;6.320;2024-02-23T00:08:15;5.75;84.72
58102;HTU21D;52034;51.926;6.320;2024-02-23T00:09:17;5.86;84.17
58102;HTU21D;52034;51.926;6.320;2024-02-23T00:10:18;5.89;84.59
58102;HTU21D;52034;51.926;6.320;2024-02-23T00:11:20;5.69;83.79
58102;HTU21D;52034;51.926;6.320;2024-02-23T00:12:22;5.79;84.18
58102;HTU21D;52034;51.926;6.320;2024-02-23T00:13:24;5.83;84.53
58102;HTU21D;52034;51.926;6.320;2024-02-23T00:14:26;5.70;84.76
58102;HTU21D;52034;51.926;6.320;2024-02-23T00:15:28;5.60;85.16
58102;HTU21D;52034;51.926;6.320;2024-02-23T00:16:29;5.63;85.46
58102;HTU21D;52034;51.926;6.320;2024-02-23T00:17:31;5.75;84.42
58102;HTU21D;52034;51.926;6.320;2024-02-23T00:18:32;5.71;84.97
58102;HTU21D;52034;51.926;6.320;2024-02-23T00:19:34;5.77;84.07
58102;HTU21D;52034;51.926;6.320;2024-02-23T00:20:36;5.87;83.98
58102;HTU21D;52034;51.926;6.320;2024-02-23T00:21:38;5.95;83.49
58102;HTU21D;52034;51.926;6.320;2024-02-23T00:22:43;5.95;83.29
58102;HTU21D;52034;51.926;6.320;2024-02-23T00:23:45;5.83;83.56
58102;HTU21D;52034;51.926;6.320;2024-02-23T00:24:47;5.84;84.10
58102;HTU21D;52034;51.926;6.320;2024-02-23T00:25:48;5.90;83.19
58102;HTU21D;52034;51.926;6.320;2024-02-23T00:26:50;5.91;83.70
58102;HTU21D;52034;51.926;6.320;2024-02-23T00:27:52;5.68;84.37
58102;HTU21D;52034;51.926;6.320;2024-02-23T00:28:54;5.77;83.91
58102;HTU21D;52034;51.926;6.320;2024-02-23T00:29:56;5.75;84.62
58102;HTU21D;52034;51.926;6.320;2024-02-23T00:30:58;5.36;85.82
58102;HTU21D;52034;51.926;6.320;2024-02-23T00:31:59;5.33;86.23
58102;HTU21D;52034;51.926;6.320;2024-02-23T00:33:01;5.47;84.18
58102;HTU21D;52034;51.926;6.320;2024-02-23T00:34:03;5.59;84.65
58102;HTU21D;52034;51.926;6.320;2024-02-23T00:35:05;5.31;86.00
58102;HTU21D;52034;51.926;6.320;2024-02-23T00:36:07;5.42;86.22
58102;HTU21D;52034;51.926;6.320;2024-02-23T00:37:09;5.24;85.28
58102;HTU21D;52034;51.926;6.320;2024-02-23T00:38:11;5.27;86.43
58102;HTU21D;52034;51.926;6.320;2024-02-23T00:39:12;5.11;86.97
58102;HTU21D;52034;51.926;6.320;2024-02-23T00:40:14;5.26;87.19
58102;HTU21D;52034;51.926;6.320;2024-02-23T00:41:17;5.11;87.69
58102;HTU21D;52034;51.926;6.320;2024-02-23T00:42:19;5.19;86.83
58102;HTU21D;52034;51.926;6.320;2024-02-23T00:43:22;5.12;85.74
58102;HTU21D;52034;51.926;6.320;2024-02-23T00:44:24;5.15;86.28
58102;HTU21D;52034;51.926;6.320;2024-02-23T00:45:26;5.18;86.83
58102;HTU21D;52034;51.926;6.320;2024-02-23T00:46:28;5.10;85.63
58102;HTU21D;52034;51.926;6.320;2024-02-23T00:47:30;5.17;86.43
58102;HTU21D;52034;51.926;6.320;2024-02-23T00:48:31;5.38;84.81
58102;HTU21D;52034;51.926;6.320;2024-02-23T00:49:33;5.40;85.93
58102;HTU21D;52034;51.926;6.320;2024-02-23T00:50:35;5.20;86.06
58102;HTU21D;52034;51.926;6.320;2024-02-23T00:51:37;5.21;85.96
58102;HTU21D;52034;51.926;6.320;2024-02-23T00:52:38;5.18;87.21
58102;HTU21D;52034;51.926;6.320;2024-02-23T00:53:40;5.20;86.90
58102;HTU21D;52034;51.926;6.320;2024-02-23T00:54:42;5.18;87.23
58102;HTU21D;52034;51.926;6.320;2024-02-23T00:55:43;5.28;86.26
58102;HTU21D;52034;51.926;6.320;2024-02-23T00:56:45;5.36;86.43
58102;HTU21D;52034;51.926;6.320;2024-02-23T00:57:51;5.30;85.41
58102;HTU21D;52034;51.926;6.320;2024-02-23T00:58:53;5.45;85.84
58102;HTU21D;52034;51.926;6.320;2024-02-23T00:59:58;5.70;83.92
58102;HTU21D;52034;51.926;6.320;2024-02-23T01:01:00;5.62;85.16
58102;HTU21D;52034;51.926;6.320;2024-02-23T01:02:02;5.64;85.69
58102;HTU21D;52034;51.926;6.320;2024-02-23T01:03:03;5.57;86.09
58102;HTU21D;52034;51.926;6.320;2024-02-23T01:04:05;5.64;85.47
58102;HTU21D;52034;51.926;6.320;2024-02-23T01:05:07;5.61;84.90
58102;HTU21D;52034;51.926;6.320;2024-02-23T01:06:10;5.74;84.71
58102;HTU21D;52034;51.926;6.320;2024-02-23T01:07:12;5.48;85.18
58102;HTU21D;52034;51.926;6.320;2024-02-23T01:08:14;5.46;86.09
58102;HTU21D;52034;51.926;6.320;2024-02-23T01:09:16;5.39;85.30
58102;HTU21D;52034;51.926;6.320;2024-02-23T01:10:21;5.48;85.73
58102;HTU21D;52034;51.926;6.320;2024-02-23T01:11:23;5.56;85.86
58102;HTU21D;52034;51.926;6.320;2024-02-23T01:12:25;5.48;85.96
58102;HTU21D;52034;51.926;6.320;2024-02-23T01:13:27;5.50;86.09
58102;HTU21D;52034;51.926;6.320;2024-02-23T01:14:28;5.45;85.81
58102;HTU21D;52034;51.926;6.320;2024-02-23T01:15:30;5.47;85.97
58102;HTU21D;52034;51.926;6.320;2024-02-23T01:16:32;5.41;86.26
58102;HTU21D;52034;51.926;6.320;2024-02-23T01:17:34;5.46;86.26
58102;HTU21D;52034;51.926;6.320;2024-02-23T01:18:35;5.54;86.10
58102;HTU21D;52034;51.926;6.320;2024-02-23T01:19:38;5.56;85.10
58102;HTU21D;52034;51.926;6.320;2024-02-23T01:20:39;5.59;84.77
58102;HTU21D;52034;51.926;6.320;2024-02-23T01:21:41;5.52;85.63
58102;HTU21D;52034;51.926;6.320;2024-02-23T01:22:43;5.60;85.08
58102;HTU21D;52034;51.926;6.320;2024-02-23T01:23:44;5.66;85.32
58102;HTU21D;52034;51.926;6.320;2024-02-23T01:24:46;5.63;85.43
58102;HTU21D;52034;51.926;6.320;2024-02-23T01:25:48;5.50;85.14
58102;HTU21D;52034;51.926;6.320;2024-02-23T01:26:49;5.55;85.32
58102;HTU21D;52034;51.926;6.320;2024-02-23T01:27:51;5.63;85.22
58102;HTU21D;52034;51.926;6.320;2024-02-23T01:28:53;5.56;85.06
58102;HTU21D;52034;51.926;6.320;2024-02-23T01:29:55;5.59;84.63
58102;HTU21D;52034;51.926;6.320;2024-02-23T01:30:56;5.56;85.53
58102;HTU21D;52034;51.926;6.320;2024-02-23T01:31:58;5.55;84.92
58102;HTU21D;52034;51.926;6.320;2024-02-23T01:33:00;5.62;85.13
58102;HTU21D;52034;51.926;6.320;2024-02-23T01:34:02;5.57;84.18
58102;HTU21D;52034;51.926;6.320;2024-02-23T01:35:07;5.49;84.68
58102;HTU21D;52034;51.926;6.320;2024-02-23T01:36:09;5.57;84.79
58102;HTU21D;52034;51.926;6.320;2024-02-23T01:37:11;5.68;84.17
58102;HTU21D;52034;51.926;6.320;2024-02-23T01:38:13;5.69;85.43
58102;HTU21D;52034;51.926;6.320;2024-02-23T01:39:20;5.63;83.94
58102;HTU21D;52034;51.926;6.320;2024-02-23T01:40:22;5.61;84.31
58102;HTU21D;52034;51.926;6.320;2024-02-23T01:41:24;5.59;83.96
58102;HTU21D;52034;51.926;6.320;2024-02-23T01:42:26;5.61;84.14
58102;HTU21D;52034;51.926;6.320;2024-02-23T01:43:28;5.60;84.58
58102;HTU21D;52034;51.926;6.320;2024-02-23T01:44:29;5.64;84.45
58102;HTU21D;52034;51.926;6.320;2024-02-23T01:45:31;5.66;83.86
58102;HTU21D;52034;51.926;6.320;2024-02-23T01:46:33;5.62;83.69
58102;HTU21D;52034;51.926;6.320;2024-02-23T01:47:35;5.55;84.19
58102;HTU21D;52034;51.926;6.320;2024-02-23T01:48:37;5.54;84.09
58102;HTU21D;52034;51.926;6.320;2024-02-23T01:49:39;5.54;84.20
58102;HTU21D;52034;51.926;6.320;2024-02-23T01:50:42;5.53;84.95
58102;HTU21D;52034;51.926;6.320;2024-02-23T01:51:44;5.56;83.39
58102;HTU21D;52034;51.926;6.320;2024-02-23T01:52:46;5.57;83.42
58102;HTU21D;52034;51.926;6.320;2024-02-23T01:53:47;5.59;83.42
58102;HTU21D;52034;51.926;6.320;2024-02-23T01:54:49;5.54;84.06
58102;HTU21D;52034;51.926;6.320;2024-02-23T01:55:51;5.60;83.68
58102;HTU21D;52034;51.926;6.320;2024-02-23T01:56:56;5.62;83.26
58102;HTU21D;52034;51.926;6.320;2024-02-23T01:57:58;5.79;83.57
58102;HTU21D;52034;51.926;6.320;2024-02-23T01:59:02;5.69;82.13
58102;HTU21D;52034;51.926;6.320;2024-02-23T02:00:06;5.64;83.49
58102;HTU21D;52034;51.926;6.320;2024-02-23T02:01:10;5.59;82.84
58102;HTU21D;52034;51.926;6.320;2024-02-23T02:02:12;5.51;84.35
58102;HTU21D;52034;51.926;6.320;2024-02-23T02:03:14;5.52;83.55
58102;HTU21D;52034;51.926;6.320;2024-02-23T02:04:16;5.50;83.67
58102;HTU21D;52034;51.926;6.320;2024-02-23T02:05:18;5.51;83.69
58102;HTU21D;52034;51.926;6.320;2024-02-23T02:06:20;5.48;83.72
58102;HTU21D;52034;51.926;6.320;2024-02-23T02:07:21;5.52;83.56
58102;HTU21D;52034;51.926;6.320;2024-02-23T02:08:26;5.47;83.52
58102;HTU21D;52034;51.926;6.320;2024-02-23T02:09:28;5.50;83.40
58102;HTU21D;52034;51.926;6.320;2024-02-23T02:10:29;5.39;83.52
58102;HTU21D;52034;51.926;6.320;2024-02-23T02:11:31;5.39;83.66
58102;HTU21D;52034;51.926;6.320;2024-02-23T02:12:33;5.40;84.02
58102;HTU21D;52034;51.926;6.320;2024-02-23T02:13:34;5.50;83.71
58102;HTU21D;52034;51.926;6.320;2024-02-23T02:14:36;5.43;83.07
58102;HTU21D;52034;51.926;6.320;2024-02-23T02:15:38;5.49;83.55
58102;HTU21D;52034;51.926;6.320;2024-02-23T02:16:40;5.41;83.06
58102;HTU21D;52034;51.926;6.320;2024-02-23T02:17:42;5.51;83.10
58102;HTU21D;52034;51.926;6.320;2024-02-23T02:18:44;5.46;82.90
58102;HTU21D;52034;51.926;6.320;2024-02-23T02:19:50;5.50;82.49
58102;HTU21D;52034;51.926;6.320;2024-02-23T02:20:54;5.41;83.51
58102;HTU21D;52034;51.926;6.320;2024-02-23T02:21:57;5.53;83.23
58102;HTU21D;52034;51.926;6.320;2024-02-23T02:22:58;5.53;82.46
58102;HTU21D;52034;51.926;6.320;2024-02-23T02:24:00;5.48;82.20
58102;HTU21D;52034;51.926;6.320;2024-02-23T02:25:02;5.46;83.23
58102;HTU21D;52034;51.926;6.320;2024-02-23T02:26:04;5.41;83.73
58102;HTU21D;52034;51.926;6.320;2024-02-23T02:27:06;5.43;83.18
58102;HTU21D;52034;51.926;6.320;2024-02-23T02:28:08;5.42;82.38
58102;HTU21D;52034;51.926;6.320;2024-02-23T02:29:09;5.48;82.23
58102;HTU21D;52034;51.926;6.320;2024-02-23T02:30:12;5.46;82.83
58102;HTU21D;52034;51.926;6.320;2024-02-23T02:31:14;5.54;82.94
58102;HTU21D;52034;51.926;6.320;2024-02-23T02:32:16;5.59;82.94
58102;HTU21D;52034;51.926;6.320;2024-02-23T02:33:18;5.60;81.93
58102;HTU21D;52034;51.926;6.320;2024-02-23T02:34:20;5.65;82.30
58102;HTU21D;52034;51.926;6.320;2024-02-23T02:35:21;5.49;81.72
58102;HTU21D;52034;51.926;6.320;2024-02-23T02:36:23;5.56;82.65
58102;HTU21D;52034;51.926;6.320;2024-02-23T02:37:25;5.45;81.97
58102;HTU21D;52034;51.926;6.320;2024-02-23T02:38:26;5.50;82.32
58102;HTU21D;52034;51.926;6.320;2024-02-23T02:39:28;5.55;82.08
58102;HTU21D;52034;51.926;6.320;2024-02-23T02:40:30;5.62;82.42
58102;HTU21D;52034;51.926;6.320;2024-02-23T02:41:33;5.65;81.21
58102;HTU21D;52034;51.926;6.320;2024-02-23T02:42:35;5.65;81.73
58102;HTU21D;52034;51.926;6.320;2024-02-23T02:43:36;5.65;80.95
58102;HTU21D;52034;51.926;6.320;2024-02-23T02:44:38;5.64;81.97
58102;HTU21D;52034;51.926;6.320;2024-02-23T02:45:40;5.57;81.13
58102;HTU21D;52034;51.926;6.320;2024-02-23T02:46:41;5.57;81.78
58102;HTU21D;52034;51.926;6.320;2024-02-23T02:47:43;5.57;82.16
58102;HTU21D;52034;51.926;6.320;2024-02-23T02:48:45;5.57;82.57
58102;HTU21D;52034;51.926;6.320;2024-02-23T02:49:46;5.60;81.29
58102;HTU21D;52034;51.926;6.320;2024-02-23T02:50:48;5.66;81.96
58102;HTU21D;52034;51.926;6.320;2024-02-23T02:51:54;5.76;81.48
58102;HTU21D;52034;51.926;6.320;2024-02-23T02:52:56;5.76;81.33
58102;HTU21D;52034;51.926;6.320;2024-02-23T02:53:58;5.76;81.14
58102;HTU21D;52034;51.926;6.320;2024-02-23T02:54:59;5.77;81.41
58102;HTU21D;52034;51.926;6.320;2024-02-23T02:56:01;5.79;80.92
58102;HTU21D;52034;51.926;6.320;2024-02-23T02:57:03;5.78;80.74
58102;HTU21D;52034;51.926;6.320;2024-02-23T02:58:05;5.76;81.74
58102;HTU21D;52034;51.926;6.320;2024-02-23T02:59:06;5.86;81.81
58102;HTU21D;52034;51.926;6.320;2024-02-23T03:00:09;5.79;81.88
58102;HTU21D;52034;51.926;6.320;2024-02-23T03:01:11;5.81;82.02
58102;HTU21D;52034;51.926;6.320;2024-02-23T03:02:13;5.77;81.20
58102;HTU21D;52034;51.926;6.320;2024-02-23T03:03:15;5.78;80.65
58102;HTU21D;52034;51.926;6.320;2024-02-23T03:04:16;5.82;80.83
58102;HTU21D;52034;51.926;6.320;2024-02-23T03:05:18;5.76;80.75
58102;HTU21D;52034;51.926;6.320;2024-02-23T03:06:20;5.82;81.72
58102;HTU21D;52034;51.926;6.320;2024-02-23T03:07:22;5.76;81.06
58102;HTU21D;52034;51.926;6.320;2024-02-23T03:08:23;5.67;81.77
58102;HTU21D;52034;51.926;6.320;2024-02-23T03:09:25;5.70;81.05
58102;HTU21D;52034;51.926;6.320;2024-02-23T03:10:27;5.69;80.83
58102;HTU21D;52034;51.926;6.320;2024-02-23T03:11:28;5.74;82.25
58102;HTU21D;52034;51.926;6.320;2024-02-23T03:12:31;5.69;81.58
58102;HTU21D;52034;51.926;6.320;2024-02-23T03:13:32;5.66;81.31
58102;HTU21D;52034;51.926;6.320;2024-02-23T03:14:34;5.70;81.14
58102;HTU21D;52034;51.926;6.320;2024-02-23T03:15:39;5.60;80.69
58102;HTU21D;52034;51.926;6.320;2024-02-23T03:16:41;5.60;81.55
58102;HTU21D;52034;51.926;6.320;2024-02-23T03:17:43;5.74;81.49
58102;HTU21D;52034;51.926;6.320;2024-02-23T03:18:45;5.64;81.24
58102;HTU21D;52034;51.926;6.320;2024-02-23T03:19:47;5.59;81.23
58102;HTU21D;52034;51.926;6.320;2024-02-23T03:20:51;5.64;81.59
58102;HTU21D;52034;51.926;6.320;2024-02-23T03:21:53;5.61;82.90
58102;HTU21D;52034;51.926;6.320;2024-02-23T03:22:55;5.56;81.28
58102;HTU21D;52034;51.926;6.320;2024-02-23T03:23:57;5.53;81.70
58102;HTU21D;52034;51.926;6.320;2024-02-23T03:24:58;5.51;81.39
58102;HTU21D;52034;51.926;6.320;2024-02-23T03:26:00;5.41;81.33
58102;HTU21D;52034;51.926;6.320;2024-02-23T03:27:02;5.48;82.37
58102;HTU21D;52034;51.926;6.320;2024-02-23T03:28:04;5.48;81.81
58102;HTU21D;52034;51.926;6.320;2024-02-23T03:29:05;5.37;82.20
58102;HTU21D;52034;51.926;6.320;2024-02-23T03:30:08;5.37;81.90
58102;HTU21D;52034;51.926;6.320;2024-02-23T03:31:10;5.35;82.78
58102;HTU21D;52034;51.926;6.320;2024-02-23T03:32:12;5.40;81.66
58102;HTU21D;52034;51.926;6.320;2024-02-23T03:33:14;5.37;82.17
58102;HTU21D;52034;51.926;6.320;2024-02-23T03:34:15;5.34;81.66
58102;HTU21D;52034;51.926;6.320;2024-02-23T03:35:17;5.38;81.98
58102;HTU21D;52034;51.926;6.320;2024-02-23T03:36:19;5.32;82.02
58102;HTU21D;52034;51.926;6.320;2024-02-23T03:37:20;5.39;81.21
58102;HTU21D;52034;51.926;6.320;2024-02-23T03:38:22;5.33;81.36
58102;HTU21D;52034;51.926;6.320;2024-02-23T03:39:24;5.28;81.41
58102;HTU21D;52034;51.926;6.320;2024-02-23T03:40:26;5.35;82.36
58102;HTU21D;52034;51.926;6.320;2024-02-23T03:41:28;5.35;82.18
58102;HTU21D;52034;51.926;6.320;2024-02-23T03:42:30;5.37;82.21
58102;HTU21D;52034;51.926;6.320;2024-02-23T03:43:31;5.35;81.70
58102;HTU21D;52034;51.926;6.320;2024-02-23T03:44:34;5.32;82.07
58102;HTU21D;52034;51.926;6.320;2024-02-23T03:45:36;5.34;82.19
58102;HTU21D;52034;51.926;6.320;2024-02-23T03:46:38;5.25;81.99
58102;HTU21D;52034;51.926;6.320;2024-02-23T03:47:40;5.26;82.87
58102;HTU21D;52034;51.926;6.320;2024-02-23T03:48:43;5.30;82.07
58102;HTU21D;52034;51.926;6.320;2024-02-23T03:49:46;5.26;82.37
58102;HTU21D;52034;51.926;6.320;2024-02-23T03:50:48;5.38;82.37
58102;HTU21D;52034;51.926;6.320;2024-02-23T03:51:49;5.34;82.20
58102;HTU21D;52034;51.926;6.320;2024-02-23T03:52:51;5.24;82.30
58102;HTU21D;52034;51.926;6.320;2024-02-23T03:53:53;5.23;82.18
58102;HTU21D;52034;51.926;6.320;2024-02-23T03:54:54;5.22;83.13
58102;HTU21D;52034;51.926;6.320;2024-02-23T03:55:56;5.33;83.14
58102;HTU21D;52034;51.926;6.320;2024-02-23T03:56:58;5.26;83.07
58102;HTU21D;52034;51.926;6.320;2024-02-23T03:58:00;5.35;82.46
58102;HTU21D;52034;51.926;6.320;2024-02-23T03:59:02;5.30;81.49
58102;HTU21D;52034;51.926;6.320;2024-02-23T04:00:04;5.23;82.15
58102;HTU21D;52034;51.926;6.320;2024-02-23T04:01:12;5.25;82.13
58102;HTU21D;52034;51.926;6.320;2024-02-23T04:02:13;5.26;82.07
58102;HTU21D;52034;51.926;6.320;2024-02-23T04:03:15;5.22;82.63
58102;HTU21D;52034;51.926;6.320;2024-02-23T04:04:17;5.33;82.96
58102;HTU21D;52034;51.926;6.320;2024-02-23T04:05:18;5.38;82.91
58102;HTU21D;52034;51.926;6.320;2024-02-23T04:06:21;5.31;82.24
58102;HTU21D;52034;51.926;6.320;2024-02-23T04:07:23;5.24;81.97
58102;HTU21D;52034;51.926;6.320;2024-02-23T04:08:25;5.37;82.15
58102;HTU21D;52034;51.926;6.320;2024-02-23T04:09:26;5.31;81.39
58102;HTU21D;52034;51.926;6.320;2024-02-23T04:10:28;5.28;82.08
58102;HTU21D;52034;51.926;6.320;2024-02-23T04:11:31;5.24;82.65
58102;HTU21D;52034;51.926;6.320;2024-02-23T04:12:33;5.26;82.44
58102;HTU21D;52034;51.926;6.320;2024-02-23T04:13:34;5.26;82.95
58102;HTU21D;52034;51.926;6.320;2024-02-23T04:14:36;5.22;82.01
58102;HTU21D;52034;51.926;6.320;2024-02-23T04:15:38;5.33;82.28
58102;HTU21D;52034;51.926;6.320;2024-02-23T04:16:39;5.28;82.44
58102;HTU21D;52034;51.926;6.320;2024-02-23T04:17:41;5.32;82.02
58102;HTU21D;52034;51.926;6.320;2024-02-23T04:18:43;5.22;81.87
58102;HTU21D;52034;51.926;6.320;2024-02-23T04:19:45;5.19;82.29
58102;HTU21D;52034;51.926;6.320;2024-02-23T04:20:46;5.24;82.12
58102;HTU21D;52034;51.926;6.320;2024-02-23T04:21:48;5.30;82.63
58102;HTU21D;52034;51.926;6.320;2024-02-23T04:22:50;5.20;81.50
58102;HTU21D;52034;51.926;6.320;2024-02-23T04:23:51;5.25;82.17
58102;HTU21D;52034;51.926;6.320;2024-02-23T04:24:53;5.20;81.93
58102;HTU21D;52034;51.926;6.320;2024-02-23T04:25:55;5.24;82.11
58102;HTU21D;52034;51.926;6.320;2024-02-23T04:26:56;5.25;81.91
58102;HTU21D;52034;51.926;6.320;2024-02-23T04:27:58;5.28;81.97
58102;HTU21D;52034;51.926;6.320;2024-02-23T04:29:00;5.27;82.31
58102;HTU21D;52034;51.926;6.320;2024-02-23T04:30:02;5.25;82.03
58102;HTU21D;52034;51.926;6.320;2024-02-23T04:31:04;5.32;81.82
58102;HTU21D;52034;51.926;6.320;2024-02-23T04:32:06;5.31;81.38
58102;HTU21D;52034;51.926;6.320;2024-02-23T04:33:08;5.35;81.50
58102;HTU21D;52034;51.926;6.320;2024-02-23T04:34:09;5.32;81.52
58102;HTU21D;52034;51.926;6.320;2024-02-23T04:35:11;5.40;82.20
58102;HTU21D;52034;51.926;6.320;2024-02-23T04:36:13;5.32;81.94
58102;HTU21D;52034;51.926;6.320;2024-02-23T04:37:15;5.33;82.15
58102;HTU21D;52034;51.926;6.320;2024-02-23T04:38:16;5.33;81.49
58102;HTU21D;52034;51.926;6.320;2024-02-23T04:39:18;5.32;82.07
58102;HTU21D;52034;51.926;6.320;2024-02-23T04:40:20;5.33;82.47
58102;HTU21D;52034;51.926;6.320;2024-02-23T04:41:22;5.32;81.92
58102;HTU21D;52034;51.926;6.320;2024-02-23T04:42:23;5.37;82.03
58102;HTU21D;52034;51.926;6.320;2024-02-23T04:43:25;5.35;81.72
58102;HTU21D;52034;51.926;6.320;2024-02-23T04:44:27;5.38;82.02
58102;HTU21D;52034;51.926;6.320;2024-02-23T04:45:28;5.42;82.67
58102;HTU21D;52034;51.926;6.320;2024-02-23T04:46:31;5.36;82.10
58102;HTU21D;52034;51.926;6.320;2024-02-23T04:47:33;5.35;82.67
58102;HTU21D;52034;51.926;6.320;2024-02-23T04:48:35;5.40;82.10
58102;HTU21D;52034;51.926;6.320;2024-02-23T04:49:37;5.39;82.42
58102;HTU21D;52034;51.926;6.320;2024-02-23T04:50:39;5.34;81.63
58102;HTU21D;52034;51.926;6.320;2024-02-23T04:51:41;5.38;82.23
58102;HTU21D;52034;51.926;6.320;2024-02-23T04:52:42;5.43;81.99
58102;HTU21D;52034;51.926;6.320;2024-02-23T04:53:44;5.41;81.53
58102;HTU21D;52034;51.926;6.320;2024-02-23T04:54:45;5.42;82.11
58102;HTU21D;52034;51.926;6.320;2024-02-23T04:55:47;5.36;81.74
58102;HTU21D;52034;51.926;6.320;2024-02-23T04:56:49;5.45;82.10
58102;HTU21D;52034;51.926;6.320;2024-02-23T04:57:52;5.38;81.94
58102;HTU21D;52034;51.926;6.320;2024-02-23T04:58:53;5.43;82.10
58102;HTU21D;52034;51.926;6.320;2024-02-23T04:59:56;5.41;81.69
58102;HTU21D;52034;51.926;6.320;2024-02-23T05:00:57;5.42;81.84
58102;HTU21D;52034;51.926;6.320;2024-02-23T05:01:59;5.41;81.87
58102;HTU21D;52034;51.926;6.320;2024-02-23T05:03:01;5.40;81.57
58102;HTU21D;52034;51.926;6.320;2024-02-23T05:04:05;5.42;81.60
58102;HTU21D;52034;51.926;6.320;2024-02-23T05:05:07;5.48;81.75
58102;HTU21D;52034;51.926;6.320;2024-02-23T05:06:09;5.36;81.64
58102;HTU21D;52034;51.926;6.320;2024-02-23T05:07:11;5.26;81.78
58102;HTU21D;52034;51.926;6.320;2024-02-23T05:08:13;5.27;82.08
58102;HTU21D;52034;51.926;6.320;2024-02-23T05:09:14;5.27;81.78
58102;HTU21D;52034;51.926;6.320;2024-02-23T05:10:16;5.24;82.08
58102;HTU21D;52034;51.926;6.320;2024-02-23T05:11:18;5.28;81.75
58102;HTU21D;52034;51.926;6.320;2024-02-23T05:12:20;5.36;81.66
58102;HTU21D;52034;51.926;6.320;2024-02-23T05:13:23;5.30;80.91
58102;HTU21D;52034;51.926;6.320;2024-02-23T05:14:24;5.28;81.73
58102;HTU21D;52034;51.926;6.320;2024-02-23T05:15:26;5.26;81.88
58102;HTU21D;52034;51.926;6.320;2024-02-23T05:16:28;5.32;82.06
58102;HTU21D;52034;51.926;6.320;2024-02-23T05:17:29;5.33;81.55
58102;HTU21D;52034;51.926;6.320;2024-02-23T05:18:32;5.36;81.10
58102;HTU21D;52034;51.926;6.320;2024-02-23T05:19:33;5.39;81.62
58102;HTU21D;52034;51.926;6.320;2024-02-23T05:20:35;5.39;81.50
58102;HTU21D;52034;51.926;6.320;2024-02-23T05:21:37;5.43;81.26
58102;HTU21D;52034;51.926;6.320;2024-02-23T05:22:39;5.41;81.17
58102;HTU21D;52034;51.926;6.320;2024-02-23T05:23:41;5.40;81.15
58102;HTU21D;52034;51.926;6.320;2024-02-23T05:24:43;5.34;81.46
58102;HTU21D;52034;51.926;6.320;2024-02-23T05:25:46;5.36;81.22
58102;HTU21D;52034;51.926;6.320;2024-02-23T05:26:48;5.36;81.28
58102;HTU21D;52034;51.926;6.320;2024-02-23T05:27:50;5.47;81.65
58102;HTU21D;52034;51.926;6.320;2024-02-23T05:28:51;5.39;80.98
58102;HTU21D;52034;51.926;6.320;2024-02-23T05:29:54;5.37;80.75
58102;HTU21D;52034;51.926;6.320;2024-02-23T05:30:56;5.45;81.55
58102;HTU21D;52034;51.926;6.320;2024-02-23T05:31:57;5.48;80.78
58102;HTU21D;52034;51.926;6.320;2024-02-23T05:32:59;5.43;81.27
58102;HTU21D;52034;51.926;6.320;2024-02-23T05:34:04;5.47;81.72
58102;HTU21D;52034;51.926;6.320;2024-02-23T05:35:06;5.51;81.10
58102;HTU21D;52034;51.926;6.320;2024-02-23T05:36:08;5.54;80.78
58102;HTU21D;52034;51.926;6.320;2024-02-23T05:37:10;5.52;81.33
58102;HTU21D;52034;51.926;6.320;2024-02-23T05:38:11;5.50;80.35
58102;HTU21D;52034;51.926;6.320;2024-02-23T05:39:13;5.55;81.13
58102;HTU21D;52034;51.926;6.320;2024-02-23T05:40:17;5.49;80.71
58102;HTU21D;52034;51.926;6.320;2024-02-23T05:41:18;5.48;81.07
58102;HTU21D;52034;51.926;6.320;2024-02-23T05:42:20;5.51;80.78
58102;HTU21D;52034;51.926;6.320;2024-02-23T05:43:22;5.57;81.35
58102;HTU21D;52034;51.926;6.320;2024-02-23T05:44:24;5.52;80.78
58102;HTU21D;52034;51.926;6.320;2024-02-23T05:45:26;5.49;81.04
58102;HTU21D;52034;51.926;6.320;2024-02-23T05:46:27;5.51;80.64
58102;HTU21D;52034;51.926;6.320;2024-02-23T05:47:29;5.60;80.15
58102;HTU21D;52034;51.926;6.320;2024-02-23T05:48:31;5.59;80.87
58102;HTU21D;52034;51.926;6.320;2024-02-23T05:49:32;5.61;80.94
58102;HTU21D;52034;51.926;6.320;2024-02-23T05:50:34;5.62;81.13
58102;HTU21D;52034;51.926;6.320;2024-02-23T05:51:36;5.60;80.77
58102;HTU21D;52034;51.926;6.320;2024-02-23T05:52:38;5.68;80.91
58102;HTU21D;52034;51.926;6.320;2024-02-23T05:53:41;5.76;80.95
58102;HTU21D;52034;51.926;6.320;2024-02-23T05:54:43;5.77;80.57
58102;HTU21D;52034;51.926;6.320;2024-02-23T05:55:44;5.77;80.73
58102;HTU21D;52034;51.926;6.320;2024-02-23T05:56:46;5.75;80.70
58102;HTU21D;52034;51.926;6.320;2024-02-23T05:57:48;5.79;80.67
58102;HTU21D;52034;51.926;6.320;2024-02-23T05:58:50;5.77;80.22
58102;HTU21D;52034;51.926;6.320;2024-02-23T05:59:51;5.78;80.56
58102;HTU21D;52034;51.926;6.320;2024-02-23T06:00:53;5.76;80.47
58102;HTU21D;52034;51.926;6.320;2024-02-23T06:01:55;5.74;80.36
58102;HTU21D;52034;51.926;6.320;2024-02-23T06:03:00;5.71;79.69
58102;HTU21D;52034;51.926;6.320;2024-02-23T06:04:01;5.72;79.63
58102;HTU21D;52034;51.926;6.320;2024-02-23T06:05:04;5.75;80.49
58102;HTU21D;52034;51.926;6.320;2024-02-23T06:06:09;5.81;79.84
58102;HTU21D;52034;51.926;6.320;2024-02-23T06:07:13;5.84;79.82
58102;HTU21D;52034;51.926;6.320;2024-02-23T06:08:14;5.84;79.80
58102;HTU21D;52034;51.926;6.320;2024-02-23T06:09:16;5.87;80.01
58102;HTU21D;52034;51.926;6.320;2024-02-23T06:10:18;5.82;78.62
58102;HTU21D;52034;51.926;6.320;2024-02-23T06:11:20;5.85;79.43
58102;HTU21D;52034;51.926;6.320;2024-02-23T06:12:22;5.79;79.92
58102;HTU21D;52034;51.926;6.320;2024-02-23T06:13:24;5.85;79.89
58102;HTU21D;52034;51.926;6.320;2024-02-23T06:14:26;5.84;79.91
58102;HTU21D;52034;51.926;6.320;2024-02-23T06:15:28;5.87;80.01
58102;HTU21D;52034;51.926;6.320;2024-02-23T06:16:29;5.92;79.32
58102;HTU21D;52034;51.926;6.320;2024-02-23T06:17:31;5.85;80.02
58102;HTU21D;52034;51.926;6.320;2024-02-23T06:18:33;5.86;80.04
58102;HTU21D;52034;51.926;6.320;2024-02-23T06:19:35;5.83;79.66
58102;HTU21D;52034;51.926;6.320;2024-02-23T06:20:37;5.86;79.18
58102;HTU21D;52034;51.926;6.320;2024-02-23T06:21:40;5.89;79.45
58102;HTU21D;52034;51.926;6.320;2024-02-23T06:22:41;5.82;79.24
58102;HTU21D;52034;51.926;6.320;2024-02-23T06:23:43;5.82;79.40
58102;HTU21D;52034;51.926;6.320;2024-02-23T06:24:45;5.86;79.61
58102;HTU21D;52034;51.926;6.320;2024-02-23T06:25:47;5.85;79.33
58102;HTU21D;52034;51.926;6.320;2024-02-23T06:26:49;5.94;79.35
58102;HTU21D;52034;51.926;6.320;2024-02-23T06:27:51;5.98;79.05
58102;HTU21D;52034;51.926;6.320;2024-02-23T06:28:52;5.96;79.23
58102;HTU21D;52034;51.926;6.320;2024-02-23T06:29:54;5.87;79.32
58102;HTU21D;52034;51.926;6.320;2024-02-23T06:30:57;5.90;79.03
58102;HTU21D;52034;51.926;6.320;2024-02-23T06:31:58;5.86;79.11